sensor_id;sensor_type;location;lat;lon;timestamp;P1;durP1;ratioP1;P2;durP2;ratioP2
58222;SDS011;44020;50.890;15.796;2024-02-14T00:13:21;109.90;;;46.30;;
58222;SDS011;44020;50.890;15.796;2024-02-14T00:15:49;103.20;;;40.30;;
58222;SDS011;44020;50.890;15.796;2024-02-14T00:18:16;99.20;;;41.50;;
58222;SDS011;44020;50.890;15.796;2024-02-14T00:20:43;96.40;;;41.20;;
58222;SDS011;44020;50.890;15.796;2024-02-14T00:23:11;106.00;;;44.30;;
58222;SDS011;44020;50.890;15.796;2024-02-14T00:25:39;118.70;;;46.50;;
58222;SDS011;44020;50.890;15.796;2024-02-14T00:28:07;112.30;;;46.50;;
58222;SDS011;44020;50.890;15.796;2024-02-14T00:30:35;109.00;;;46.30;;
58222;SDS011;44020;50.890;15.796;2024-02-14T00:33:02;103.90;;;44.70;;
58222;SDS011;44020;50.890;15.796;2024-02-14T00:35:30;118.70;;;47.00;;
58222;SDS011;44020;50.890;15.796;2024-02-14T00:37:58;109.70;;;45.10;;
58222;SDS011;44020;50.890;15.796;2024-02-14T00:40:26;109.30;;;45.50;;
58222;SDS011;44020;50.890;15.796;2024-02-14T00:42:54;104.60;;;42.90;;
58222;SDS011;44020;50.890;15.796;2024-02-14T00:45:21;97.40;;;42.90;;
58222;SDS011;44020;50.890;15.796;2024-02-14T00:47:48;102.10;;;44.30;;
58222;SDS011;44020;50.890;15.796;2024-02-14T00:50:16;119.90;;;51.40;;
58222;SDS011;44020;50.890;15.796;2024-02-14T00:52:43;128.60;;;51.70;;
58222;SDS011;44020;50.890;15.796;2024-02-14T00:55:11;106.20;;;44.30;;
58222;SDS011;44020;50.890;15.796;2024-02-14T00:57:39;109.60;;;45.60;;
58222;SDS011;44020;50.890;15.796;2024-02-14T01:00:07;101.30;;;42.70;;
58222;SDS011;44020;50.890;15.796;2024-02-14T01:02:35;96.00;;;40.80;;
58222;SDS011;44020;50.890;15.796;2024-02-14T01:05:03;95.90;;;41.30;;
58222;SDS011;44020;50.890;15.796;2024-02-14T01:07:31;99.10;;;40.90;;
58222;SDS011;44020;50.890;15.796;2024-02-14T01:09:59;95.20;;;38.90;;
58222;SDS011;44020;50.890;15.796;2024-02-14T01:12:26;81.50;;;36.90;;
58222;SDS011;44020;50.890;15.796;2024-02-14T01:14:54;83.80;;;39.00;;
58222;SDS011;44020;50.890;15.796;2024-02-14T01:17:22;83.80;;;37.80;;
58222;SDS011;44020;50.890;15.796;2024-02-14T01:19:50;91.80;;;40.20;;
58222;SDS011;44020;50.890;15.796;2024-02-14T01:22:18;91.70;;;39.90;;
58222;SDS011;44020;50.890;15.796;2024-02-14T01:24:45;90.70;;;39.20;;
58222;SDS011;44020;50.890;15.796;2024-02-14T01:27:13;90.00;;;39.10;;
58222;SDS011;44020;50.890;15.796;2024-02-14T01:29:40;80.10;;;37.70;;
58222;SDS011;44020;50.890;15.796;2024-02-14T01:32:08;86.30;;;38.00;;
58222;SDS011;44020;50.890;15.796;2024-02-14T01:34:36;84.40;;;36.80;;
58222;SDS011;44020;50.890;15.796;2024-02-14T01:37:03;102.70;;;40.00;;
58222;SDS011;44020;50.890;15.796;2024-02-14T01:39:31;93.20;;;40.20;;
58222;SDS011;44020;50.890;15.796;2024-02-14T01:41:58;90.30;;;40.20;;
58222;SDS011;44020;50.890;15.796;2024-02-14T01:44:25;91.00;;;40.90;;
58222;SDS011;44020;50.890;15.796;2024-02-14T01:46:53;94.60;;;41.50;;
58222;SDS011;44020;50.890;15.796;2024-02-14T01:49:20;94.70;;;41.50;;
58222;SDS011;44020;50.890;15.796;2024-02-14T01:51:48;96.60;;;42.20;;
58222;SDS011;44020;50.890;15.796;2024-02-14T01:54:15;107.30;;;44.70;;
58222;SDS011;44020;50.890;15.796;2024-02-14T01:56:44;107.00;;;42.80;;
58222;SDS011;44020;50.890;15.796;2024-02-14T01:59:12;100.40;;;40.90;;
58222;SDS011;44020;50.890;15.796;2024-02-14T02:01:42;98.80;;;41.60;;
58222;SDS011;44020;50.890;15.796;2024-02-14T02:04:10;91.00;;;39.90;;
58222;SDS011;44020;50.890;15.796;2024-02-14T02:06:38;86.30;;;39.20;;
58222;SDS011;44020;50.890;15.796;2024-02-14T02:09:08;105.60;;;41.60;;
58222;SDS011;44020;50.890;15.796;2024-02-14T02:12:09;100.70;;;41.70;;
58222;SDS011;44020;50.890;15.796;2024-02-14T02:14:34;97.80;;;40.90;;
58222;SDS011;44020;50.890;15.796;2024-02-14T02:17:02;91.80;;;41.10;;
58222;SDS011;44020;50.890;15.796;2024-02-14T02:19:34;96.40;;;39.80;;
58222;SDS011;44020;50.890;15.796;2024-02-14T02:22:03;85.90;;;39.10;;
58222;SDS011;44020;50.890;15.796;2024-02-14T02:24:32;87.80;;;40.20;;
58222;SDS011;44020;50.890;15.796;2024-02-14T02:27:00;95.70;;;39.90;;
58222;SDS011;44020;50.890;15.796;2024-02-14T02:29:27;92.00;;;38.70;;
58222;SDS011;44020;50.890;15.796;2024-02-14T02:31:58;92.30;;;40.10;;
58222;SDS011;44020;50.890;15.796;2024-02-14T02:34:25;89.00;;;39.50;;
58222;SDS011;44020;50.890;15.796;2024-02-14T02:36:53;92.70;;;40.40;;
58222;SDS011;44020;50.890;15.796;2024-02-14T02:39:21;92.40;;;39.10;;
58222;SDS011;44020;50.890;15.796;2024-02-14T02:41:48;91.70;;;38.10;;
58222;SDS011;44020;50.890;15.796;2024-02-14T02:44:16;87.90;;;36.80;;
58222;SDS011;44020;50.890;15.796;2024-02-14T02:46:44;88.90;;;36.20;;
58222;SDS011;44020;50.890;15.796;2024-02-14T02:49:12;72.40;;;33.50;;
58222;SDS011;44020;50.890;15.796;2024-02-14T02:51:41;70.00;;;32.60;;
58222;SDS011;44020;50.890;15.796;2024-02-14T02:54:08;79.00;;;34.20;;
58222;SDS011;44020;50.890;15.796;2024-02-14T02:56:38;80.40;;;36.90;;
58222;SDS011;44020;50.890;15.796;2024-02-14T02:59:05;93.70;;;38.60;;
58222;SDS011;44020;50.890;15.796;2024-02-14T03:01:36;76.80;;;36.80;;
58222;SDS011;44020;50.890;15.796;2024-02-14T03:04:04;75.70;;;33.60;;
58222;SDS011;44020;50.890;15.796;2024-02-14T03:06:31;76.00;;;32.70;;
58222;SDS011;44020;50.890;15.796;2024-02-14T03:08:59;69.80;;;28.00;;
58222;SDS011;44020;50.890;15.796;2024-02-14T03:11:27;63.30;;;26.90;;
58222;SDS011;44020;50.890;15.796;2024-02-14T03:13:54;68.10;;;29.70;;
58222;SDS011;44020;50.890;15.796;2024-02-14T03:16:22;71.80;;;32.30;;
58222;SDS011;44020;50.890;15.796;2024-02-14T03:18:51;77.10;;;33.80;;
58222;SDS011;44020;50.890;15.796;2024-02-14T03:21:20;79.90;;;32.80;;
58222;SDS011;44020;50.890;15.796;2024-02-14T03:23:48;75.70;;;32.10;;
58222;SDS011;44020;50.890;15.796;2024-02-14T03:26:16;78.40;;;32.70;;
58222;SDS011;44020;50.890;15.796;2024-02-14T03:28:43;74.70;;;31.70;;
58222;SDS011;44020;50.890;15.796;2024-02-14T03:31:12;64.40;;;30.30;;
58222;SDS011;44020;50.890;15.796;2024-02-14T03:33:42;68.80;;;30.00;;
58222;SDS011;44020;50.890;15.796;2024-02-14T03:36:11;71.20;;;30.80;;
58222;SDS011;44020;50.890;15.796;2024-02-14T03:38:38;64.00;;;29.90;;
58222;SDS011;44020;50.890;15.796;2024-02-14T03:41:07;67.40;;;30.50;;
58222;SDS011;44020;50.890;15.796;2024-02-14T03:43:35;78.30;;;34.90;;
58222;SDS011;44020;50.890;15.796;2024-02-14T03:46:03;76.70;;;33.30;;
58222;SDS011;44020;50.890;15.796;2024-02-14T03:48:32;67.50;;;29.90;;
58222;SDS011;44020;50.890;15.796;2024-02-14T03:50:59;68.90;;;30.50;;
58222;SDS011;44020;50.890;15.796;2024-02-14T03:53:27;64.20;;;29.50;;
58222;SDS011;44020;50.890;15.796;2024-02-14T03:55:54;58.80;;;28.30;;
58222;SDS011;44020;50.890;15.796;2024-02-14T03:58:22;62.00;;;28.00;;
58222;SDS011;44020;50.890;15.796;2024-02-14T04:00:50;70.40;;;29.60;;
58222;SDS011;44020;50.890;15.796;2024-02-14T04:03:18;64.00;;;28.40;;
58222;SDS011;44020;50.890;15.796;2024-02-14T04:05:46;59.20;;;26.90;;
58222;SDS011;44020;50.890;15.796;2024-02-14T04:08:14;55.40;;;28.00;;
58222;SDS011;44020;50.890;15.796;2024-02-14T04:10:42;62.90;;;28.30;;
58222;SDS011;44020;50.890;15.796;2024-02-14T04:13:10;60.10;;;27.20;;
58222;SDS011;44020;50.890;15.796;2024-02-14T04:15:37;62.00;;;27.90;;
58222;SDS011;44020;50.890;15.796;2024-02-14T04:18:05;59.10;;;27.90;;
58222;SDS011;44020;50.890;15.796;2024-02-14T04:20:33;61.20;;;27.70;;
58222;SDS011;44020;50.890;15.796;2024-02-14T04:23:00;57.50;;;29.00;;
58222;SDS011;44020;50.890;15.796;2024-02-14T04:25:28;57.70;;;27.30;;
58222;SDS011;44020;50.890;15.796;2024-02-14T04:27:56;62.70;;;26.90;;
58222;SDS011;44020;50.890;15.796;2024-02-14T04:30:23;57.90;;;27.80;;
58222;SDS011;44020;50.890;15.796;2024-02-14T04:32:51;60.20;;;30.00;;
58222;SDS011;44020;50.890;15.796;2024-02-14T04:35:22;74.00;;;31.90;;
58222;SDS011;44020;50.890;15.796;2024-02-14T04:37:49;75.70;;;32.80;;
58222;SDS011;44020;50.890;15.796;2024-02-14T04:40:18;71.10;;;32.20;;
58222;SDS011;44020;50.890;15.796;2024-02-14T04:42:46;73.00;;;31.10;;
58222;SDS011;44020;50.890;15.796;2024-02-14T04:45:14;63.00;;;28.80;;
58222;SDS011;44020;50.890;15.796;2024-02-14T04:47:41;64.50;;;29.60;;
58222;SDS011;44020;50.890;15.796;2024-02-14T04:50:10;60.20;;;28.10;;
58222;SDS011;44020;50.890;15.796;2024-02-14T04:52:37;47.90;;;23.90;;
58222;SDS011;44020;50.890;15.796;2024-02-14T04:55:05;56.20;;;25.80;;
58222;SDS011;44020;50.890;15.796;2024-02-14T04:57:33;52.70;;;25.20;;
58222;SDS011;44020;50.890;15.796;2024-02-14T05:00:02;53.80;;;24.40;;
58222;SDS011;44020;50.890;15.796;2024-02-14T05:02:32;57.30;;;26.00;;
58222;SDS011;44020;50.890;15.796;2024-02-14T05:05:00;58.00;;;25.40;;
58222;SDS011;44020;50.890;15.796;2024-02-14T05:07:28;75.80;;;33.00;;
58222;SDS011;44020;50.890;15.796;2024-02-14T05:09:56;88.30;;;36.70;;
58222;SDS011;44020;50.890;15.796;2024-02-14T05:12:23;151.70;;;53.70;;
58222;SDS011;44020;50.890;15.796;2024-02-14T05:14:51;156.80;;;59.10;;
58222;SDS011;44020;50.890;15.796;2024-02-14T05:17:18;148.80;;;55.10;;
58222;SDS011;44020;50.890;15.796;2024-02-14T05:19:46;137.20;;;51.40;;
58222;SDS011;44020;50.890;15.796;2024-02-14T05:22:13;116.00;;;47.40;;
58222;SDS011;44020;50.890;15.796;2024-02-14T05:24:41;113.10;;;46.60;;
58222;SDS011;44020;50.890;15.796;2024-02-14T05:27:09;102.10;;;42.10;;
58222;SDS011;44020;50.890;15.796;2024-02-14T05:29:36;93.50;;;40.20;;
58222;SDS011;44020;50.890;15.796;2024-02-14T05:32:04;88.90;;;37.00;;
58222;SDS011;44020;50.890;15.796;2024-02-14T05:34:32;77.40;;;33.90;;
58222;SDS011;44020;50.890;15.796;2024-02-14T05:36:59;73.10;;;32.40;;
58222;SDS011;44020;50.890;15.796;2024-02-14T05:39:26;73.20;;;31.40;;
58222;SDS011;44020;50.890;15.796;2024-02-14T05:41:56;72.60;;;30.50;;
58222;SDS011;44020;50.890;15.796;2024-02-14T05:44:24;72.30;;;31.10;;
58222;SDS011;44020;50.890;15.796;2024-02-14T05:46:53;76.10;;;32.90;;
58222;SDS011;44020;50.890;15.796;2024-02-14T05:49:21;75.50;;;33.90;;
58222;SDS011;44020;50.890;15.796;2024-02-14T05:51:49;82.80;;;35.70;;
58222;SDS011;44020;50.890;15.796;2024-02-14T05:54:18;87.10;;;36.80;;
58222;SDS011;44020;50.890;15.796;2024-02-14T05:56:46;86.40;;;35.90;;
58222;SDS011;44020;50.890;15.796;2024-02-14T05:59:14;75.90;;;35.70;;
58222;SDS011;44020;50.890;15.796;2024-02-14T06:01:41;87.00;;;35.80;;
58222;SDS011;44020;50.890;15.796;2024-02-14T06:04:08;70.60;;;32.50;;
58222;SDS011;44020;50.890;15.796;2024-02-14T06:06:36;74.10;;;33.20;;
58222;SDS011;44020;50.890;15.796;2024-02-14T06:09:03;72.70;;;31.30;;
58222;SDS011;44020;50.890;15.796;2024-02-14T06:14:06;68.80;;;30.40;;
58222;SDS011;44020;50.890;15.796;2024-02-14T06:16:34;59.00;;;27.10;;
58222;SDS011;44020;50.890;15.796;2024-02-14T06:19:02;55.80;;;24.10;;
58222;SDS011;44020;50.890;15.796;2024-02-14T06:21:31;49.30;;;22.40;;
58222;SDS011;44020;50.890;15.796;2024-02-14T06:24:00;43.20;;;21.20;;
58222;SDS011;44020;50.890;15.796;2024-02-14T06:26:30;47.30;;;22.40;;
58222;SDS011;44020;50.890;15.796;2024-02-14T06:28:59;48.80;;;22.30;;
58222;SDS011;44020;50.890;15.796;2024-02-14T06:31:26;51.70;;;22.50;;
58222;SDS011;44020;50.890;15.796;2024-02-14T06:33:54;77.30;;;31.50;;
58222;SDS011;44020;50.890;15.796;2024-02-14T06:36:21;62.40;;;29.70;;
58222;SDS011;44020;50.890;15.796;2024-02-14T06:38:48;51.10;;;23.70;;
58222;SDS011;44020;50.890;15.796;2024-02-14T06:41:17;47.00;;;21.40;;
58222;SDS011;44020;50.890;15.796;2024-02-14T06:43:44;47.30;;;20.50;;
58222;SDS011;44020;50.890;15.796;2024-02-14T06:46:11;45.20;;;21.60;;
58222;SDS011;44020;50.890;15.796;2024-02-14T06:48:39;43.40;;;20.50;;
58222;SDS011;44020;50.890;15.796;2024-02-14T06:51:06;45.20;;;21.60;;
58222;SDS011;44020;50.890;15.796;2024-02-14T06:53:34;52.70;;;23.70;;
58222;SDS011;44020;50.890;15.796;2024-02-14T06:56:02;57.10;;;24.70;;
58222;SDS011;44020;50.890;15.796;2024-02-14T06:58:30;54.30;;;22.60;;
58222;SDS011;44020;50.890;15.796;2024-02-14T07:00:57;54.50;;;23.40;;
58222;SDS011;44020;50.890;15.796;2024-02-14T07:03:24;55.30;;;23.70;;
58222;SDS011;44020;50.890;15.796;2024-02-14T07:05:52;63.70;;;25.30;;
58222;SDS011;44020;50.890;15.796;2024-02-14T07:08:19;60.70;;;25.10;;
58222;SDS011;44020;50.890;15.796;2024-02-14T07:10:47;60.20;;;24.20;;
58222;SDS011;44020;50.890;15.796;2024-02-14T07:13:14;50.50;;;21.20;;
58222;SDS011;44020;50.890;15.796;2024-02-14T07:15:42;48.70;;;21.50;;
58222;SDS011;44020;50.890;15.796;2024-02-14T07:18:09;40.40;;;19.60;;
58222;SDS011;44020;50.890;15.796;2024-02-14T07:20:36;42.70;;;21.00;;
58222;SDS011;44020;50.890;15.796;2024-02-14T07:23:04;44.60;;;21.70;;
58222;SDS011;44020;50.890;15.796;2024-02-14T07:25:31;46.80;;;22.30;;
58222;SDS011;44020;50.890;15.796;2024-02-14T07:27:59;46.90;;;22.50;;
58222;SDS011;44020;50.890;15.796;2024-02-14T07:30:26;47.10;;;21.70;;
58222;SDS011;44020;50.890;15.796;2024-02-14T07:32:53;37.20;;;18.90;;
58222;SDS011;44020;50.890;15.796;2024-02-14T07:35:20;123.80;;;53.80;;
58222;SDS011;44020;50.890;15.796;2024-02-14T07:37:48;291.70;;;110.10;;
58222;SDS011;44020;50.890;15.796;2024-02-14T07:40:15;194.60;;;77.60;;
58222;SDS011;44020;50.890;15.796;2024-02-14T07:42:43;86.00;;;40.30;;
58222;SDS011;44020;50.890;15.796;2024-02-14T07:45:10;72.20;;;33.80;;
58222;SDS011;44020;50.890;15.796;2024-02-14T07:47:37;58.60;;;30.60;;
58222;SDS011;44020;50.890;15.796;2024-02-14T07:50:07;47.50;;;25.00;;
58222;SDS011;44020;50.890;15.796;2024-02-14T07:52:34;43.50;;;19.20;;
58222;SDS011;44020;50.890;15.796;2024-02-14T07:55:02;42.50;;;19.10;;
58222;SDS011;44020;50.890;15.796;2024-02-14T07:57:30;37.40;;;18.00;;
58222;SDS011;44020;50.890;15.796;2024-02-14T07:59:57;37.40;;;18.30;;
58222;SDS011;44020;50.890;15.796;2024-02-14T08:02:24;36.90;;;18.30;;
58222;SDS011;44020;50.890;15.796;2024-02-14T08:04:54;34.00;;;18.30;;
58222;SDS011;44020;50.890;15.796;2024-02-14T08:07:21;38.70;;;18.80;;
58222;SDS011;44020;50.890;15.796;2024-02-14T08:09:49;36.30;;;17.20;;
58222;SDS011;44020;50.890;15.796;2024-02-14T08:12:16;30.60;;;16.80;;
58222;SDS011;44020;50.890;15.796;2024-02-14T08:14:44;32.00;;;15.00;;
58222;SDS011;44020;50.890;15.796;2024-02-14T08:17:11;30.80;;;15.90;;
58222;SDS011;44020;50.890;15.796;2024-02-14T08:19:38;34.70;;;16.90;;
58222;SDS011;44020;50.890;15.796;2024-02-14T08:22:06;35.70;;;16.70;;
58222;SDS011;44020;50.890;15.796;2024-02-14T08:24:33;39.30;;;18.80;;
58222;SDS011;44020;50.890;15.796;2024-02-14T08:27:01;47.50;;;21.10;;
58222;SDS011;44020;50.890;15.796;2024-02-14T08:29:28;44.10;;;20.00;;
58222;SDS011;44020;50.890;15.796;2024-02-14T08:31:55;35.10;;;17.00;;
58222;SDS011;44020;50.890;15.796;2024-02-14T08:34:22;39.90;;;18.10;;
58222;SDS011;44020;50.890;15.796;2024-02-14T08:36:50;33.80;;;18.40;;
58222;SDS011;44020;50.890;15.796;2024-02-14T08:39:18;290.60;;;89.40;;
58222;SDS011;44020;50.890;15.796;2024-02-14T08:41:47;150.60;;;49.00;;
58222;SDS011;44020;50.890;15.796;2024-02-14T08:44:14;68.50;;;28.90;;
58222;SDS011;44020;50.890;15.796;2024-02-14T08:46:42;79.50;;;33.40;;
58222;SDS011;44020;50.890;15.796;2024-02-14T08:49:11;58.20;;;28.90;;
58222;SDS011;44020;50.890;15.796;2024-02-14T08:51:38;70.20;;;31.40;;
58222;SDS011;44020;50.890;15.796;2024-02-14T08:54:06;75.60;;;32.70;;
58222;SDS011;44020;50.890;15.796;2024-02-14T08:56:34;49.70;;;25.90;;
58222;SDS011;44020;50.890;15.796;2024-02-14T08:59:02;50.50;;;27.50;;
58222;SDS011;44020;50.890;15.796;2024-02-14T09:01:30;47.50;;;26.00;;
58222;SDS011;44020;50.890;15.796;2024-02-14T09:03:57;59.00;;;31.60;;
58222;SDS011;44020;50.890;15.796;2024-02-14T09:06:25;55.10;;;30.50;;
58222;SDS011;44020;50.890;15.796;2024-02-14T09:08:53;54.40;;;31.00;;
58222;SDS011;44020;50.890;15.796;2024-02-14T09:11:21;50.40;;;28.40;;
58222;SDS011;44020;50.890;15.796;2024-02-14T09:13:49;44.80;;;26.30;;
58222;SDS011;44020;50.890;15.796;2024-02-14T09:16:20;38.30;;;23.00;;
58222;SDS011;44020;50.890;15.796;2024-02-14T09:18:49;36.10;;;21.40;;
58222;SDS011;44020;50.890;15.796;2024-02-14T09:21:17;40.20;;;20.90;;
58222;SDS011;44020;50.890;15.796;2024-02-14T09:23:47;35.00;;;21.10;;
58222;SDS011;44020;50.890;15.796;2024-02-14T09:26:15;37.40;;;18.90;;
58222;SDS011;44020;50.890;15.796;2024-02-14T09:28:45;35.00;;;18.80;;
58222;SDS011;44020;50.890;15.796;2024-02-14T09:31:17;32.40;;;17.30;;
58222;SDS011;44020;50.890;15.796;2024-02-14T09:33:47;29.70;;;17.20;;
58222;SDS011;44020;50.890;15.796;2024-02-14T09:36:15;34.10;;;17.60;;
58222;SDS011;44020;50.890;15.796;2024-02-14T09:38:42;35.30;;;18.50;;
58222;SDS011;44020;50.890;15.796;2024-02-14T09:41:25;34.60;;;18.20;;
58222;SDS011;44020;50.890;15.796;2024-02-14T09:43:56;27.20;;;15.80;;
58222;SDS011;44020;50.890;15.796;2024-02-14T09:46:28;33.90;;;17.60;;
58222;SDS011;44020;50.890;15.796;2024-02-14T09:48:58;44.60;;;18.30;;
58222;SDS011;44020;50.890;15.796;2024-02-14T09:51:28;53.80;;;24.10;;
58222;SDS011;44020;50.890;15.796;2024-02-14T09:53:56;39.30;;;19.40;;
58222;SDS011;44020;50.890;15.796;2024-02-14T09:56:26;31.70;;;16.10;;
58222;SDS011;44020;50.890;15.796;2024-02-14T09:58:57;30.30;;;16.80;;
58222;SDS011;44020;50.890;15.796;2024-02-14T10:01:27;32.50;;;15.80;;
58222;SDS011;44020;50.890;15.796;2024-02-14T10:03:54;29.60;;;16.00;;
58222;SDS011;44020;50.890;15.796;2024-02-14T10:06:22;28.00;;;15.40;;
58222;SDS011;44020;50.890;15.796;2024-02-14T10:08:50;32.40;;;15.80;;
58222;SDS011;44020;50.890;15.796;2024-02-14T10:11:18;28.30;;;16.00;;
58222;SDS011;44020;50.890;15.796;2024-02-14T10:13:48;33.00;;;16.70;;
58222;SDS011;44020;50.890;15.796;2024-02-14T10:16:17;27.80;;;15.30;;
58222;SDS011;44020;50.890;15.796;2024-02-14T10:18:45;26.40;;;14.80;;
58222;SDS011;44020;50.890;15.796;2024-02-14T10:21:16;26.60;;;15.20;;
58222;SDS011;44020;50.890;15.796;2024-02-14T10:23:45;29.30;;;16.00;;
58222;SDS011;44020;50.890;15.796;2024-02-14T10:26:17;29.20;;;15.30;;
58222;SDS011;44020;50.890;15.796;2024-02-14T10:28:45;30.50;;;15.00;;
58222;SDS011;44020;50.890;15.796;2024-02-14T10:31:12;26.10;;;14.10;;
58222;SDS011;44020;50.890;15.796;2024-02-14T10:33:41;19.40;;;10.80;;
58222;SDS011;44020;50.890;15.796;2024-02-14T10:36:08;24.60;;;12.10;;
58222;SDS011;44020;50.890;15.796;2024-02-14T10:38:36;21.10;;;12.50;;
58222;SDS011;44020;50.890;15.796;2024-02-14T10:41:04;20.10;;;11.40;;
58222;SDS011;44020;50.890;15.796;2024-02-14T10:43:32;19.70;;;10.60;;
58222;SDS011;44020;50.890;15.796;2024-02-14T10:46:00;14.90;;;8.90;;
58222;SDS011;44020;50.890;15.796;2024-02-14T10:48:35;14.50;;;7.60;;
58222;SDS011;44020;50.890;15.796;2024-02-14T10:51:05;14.80;;;8.00;;
58222;SDS011;44020;50.890;15.796;2024-02-14T10:53:34;16.20;;;7.50;;
58222;SDS011;44020;50.890;15.796;2024-02-14T10:56:06;12.50;;;7.30;;
58222;SDS011;44020;50.890;15.796;2024-02-14T10:58:34;13.70;;;7.00;;
58222;SDS011;44020;50.890;15.796;2024-02-14T11:01:01;14.80;;;7.40;;
58222;SDS011;44020;50.890;15.796;2024-02-14T11:03:30;12.90;;;6.60;;
58222;SDS011;44020;50.890;15.796;2024-02-14T11:06:00;13.80;;;6.10;;
58222;SDS011;44020;50.890;15.796;2024-02-14T11:08:30;11.40;;;4.90;;
58222;SDS011;44020;50.890;15.796;2024-02-14T11:10:59;8.30;;;5.40;;
58222;SDS011;44020;50.890;15.796;2024-02-14T11:13:28;11.60;;;6.30;;
58222;SDS011;44020;50.890;15.796;2024-02-14T11:16:02;11.90;;;5.60;;
58222;SDS011;44020;50.890;15.796;2024-02-14T11:18:31;10.50;;;5.80;;
58222;SDS011;44020;50.890;15.796;2024-02-14T11:21:03;9.30;;;5.10;;
58222;SDS011;44020;50.890;15.796;2024-02-14T11:23:31;12.80;;;5.70;;
58222;SDS011;44020;50.890;15.796;2024-02-14T11:26:01;10.10;;;5.10;;
58222;SDS011;44020;50.890;15.796;2024-02-14T11:28:31;11.10;;;5.90;;
58222;SDS011;44020;50.890;15.796;2024-02-14T11:31:06;9.70;;;5.20;;
58222;SDS011;44020;50.890;15.796;2024-02-14T11:33:36;9.70;;;5.10;;
58222;SDS011;44020;50.890;15.796;2024-02-14T11:36:07;10.60;;;5.50;;
58222;SDS011;44020;50.890;15.796;2024-02-14T11:38:39;9.50;;;5.40;;
58222;SDS011;44020;50.890;15.796;2024-02-14T11:41:10;8.90;;;5.00;;
58222;SDS011;44020;50.890;15.796;2024-02-14T11:43:38;10.20;;;5.20;;
58222;SDS011;44020;50.890;15.796;2024-02-14T11:46:06;7.90;;;4.80;;
58222;SDS011;44020;50.890;15.796;2024-02-14T11:48:34;10.00;;;4.80;;
58222;SDS011;44020;50.890;15.796;2024-02-14T11:51:01;7.90;;;4.90;;
58222;SDS011;44020;50.890;15.796;2024-02-14T11:53:33;7.90;;;4.70;;
58222;SDS011;44020;50.890;15.796;2024-02-14T11:56:00;8.90;;;4.60;;
58222;SDS011;44020;50.890;15.796;2024-02-14T11:58:29;12.70;;;5.40;;
58222;SDS011;44020;50.890;15.796;2024-02-14T12:00:58;11.10;;;5.90;;
58222;SDS011;44020;50.890;15.796;2024-02-14T12:03:25;12.10;;;5.80;;
58222;SDS011;44020;50.890;15.796;2024-02-14T12:05:53;12.40;;;5.50;;
58222;SDS011;44020;50.890;15.796;2024-02-14T12:08:21;9.60;;;4.90;;
58222;SDS011;44020;50.890;15.796;2024-02-14T12:10:49;9.10;;;4.20;;
58222;SDS011;44020;50.890;15.796;2024-02-14T12:13:20;12.10;;;4.30;;
58222;SDS011;44020;50.890;15.796;2024-02-14T12:15:50;10.90;;;4.10;;
58222;SDS011;44020;50.890;15.796;2024-02-14T12:18:19;5.90;;;3.60;;
58222;SDS011;44020;50.890;15.796;2024-02-14T12:20:48;6.60;;;3.50;;
58222;SDS011;44020;50.890;15.796;2024-02-14T12:23:19;7.20;;;3.70;;
58222;SDS011;44020;50.890;15.796;2024-02-14T12:25:47;6.20;;;3.40;;
58222;SDS011;44020;50.890;15.796;2024-02-14T12:28:19;6.90;;;3.50;;
58222;SDS011;44020;50.890;15.796;2024-02-14T12:30:50;6.40;;;3.00;;
58222;SDS011;44020;50.890;15.796;2024-02-14T12:33:25;6.90;;;3.30;;
58222;SDS011;44020;50.890;15.796;2024-02-14T12:35:54;8.60;;;4.20;;
58222;SDS011;44020;50.890;15.796;2024-02-14T12:38:23;5.10;;;2.90;;
58222;SDS011;44020;50.890;15.796;2024-02-14T12:40:50;7.70;;;2.70;;
58222;SDS011;44020;50.890;15.796;2024-02-14T12:43:21;8.90;;;2.90;;
58222;SDS011;44020;50.890;15.796;2024-02-14T12:45:48;7.00;;;2.80;;
58222;SDS011;44020;50.890;15.796;2024-02-14T12:48:21;6.40;;;3.00;;
58222;SDS011;44020;50.890;15.796;2024-02-14T12:50:54;5.20;;;2.80;;
58222;SDS011;44020;50.890;15.796;2024-02-14T12:53:23;8.80;;;3.60;;
58222;SDS011;44020;50.890;15.796;2024-02-14T12:55:51;6.10;;;3.30;;
58222;SDS011;44020;50.890;15.796;2024-02-14T12:58:19;5.90;;;2.90;;
58222;SDS011;44020;50.890;15.796;2024-02-14T13:00:47;8.90;;;3.30;;
58222;SDS011;44020;50.890;15.796;2024-02-14T13:03:15;7.00;;;3.40;;
58222;SDS011;44020;50.890;15.796;2024-02-14T13:05:43;6.90;;;3.40;;
58222;SDS011;44020;50.890;15.796;2024-02-14T13:08:11;10.60;;;4.70;;
58222;SDS011;44020;50.890;15.796;2024-02-14T13:10:39;10.20;;;5.00;;
58222;SDS011;44020;50.890;15.796;2024-02-14T13:13:07;11.90;;;6.80;;
58222;SDS011;44020;50.890;15.796;2024-02-14T13:15:35;7.30;;;4.10;;
58222;SDS011;44020;50.890;15.796;2024-02-14T13:18:03;7.30;;;3.50;;
58222;SDS011;44020;50.890;15.796;2024-02-14T13:20:31;6.50;;;3.20;;
58222;SDS011;44020;50.890;15.796;2024-02-14T13:22:58;5.80;;;3.40;;
58222;SDS011;44020;50.890;15.796;2024-02-14T13:25:26;2.80;;;1.60;;
58222;SDS011;44020;50.890;15.796;2024-02-14T13:27:54;7.50;;;2.50;;
58222;SDS011;44020;50.890;15.796;2024-02-14T13:30:22;10.40;;;5.90;;
58222;SDS011;44020;50.890;15.796;2024-02-14T13:32:49;10.00;;;3.10;;
58222;SDS011;44020;50.890;15.796;2024-02-14T13:35:17;4.30;;;2.30;;
58222;SDS011;44020;50.890;15.796;2024-02-14T13:37:45;3.20;;;2.10;;
58222;SDS011;44020;50.890;15.796;2024-02-14T13:40:13;7.30;;;4.60;;
58222;SDS011;44020;50.890;15.796;2024-02-14T13:42:41;9.80;;;6.40;;
58222;SDS011;44020;50.890;15.796;2024-02-14T13:45:09;5.40;;;2.50;;
58222;SDS011;44020;50.890;15.796;2024-02-14T13:47:38;10.50;;;7.60;;
58222;SDS011;44020;50.890;15.796;2024-02-14T13:50:16;6.80;;;3.90;;
58222;SDS011;44020;50.890;15.796;2024-02-14T13:52:44;11.10;;;5.10;;
58222;SDS011;44020;50.890;15.796;2024-02-14T13:55:12;17.90;;;7.40;;
58222;SDS011;44020;50.890;15.796;2024-02-14T13:57:39;13.80;;;6.70;;
58222;SDS011;44020;50.890;15.796;2024-02-14T14:00:07;24.10;;;12.80;;
58222;SDS011;44020;50.890;15.796;2024-02-14T14:02:39;36.80;;;18.50;;
58222;SDS011;44020;50.890;15.796;2024-02-14T14:05:10;23.50;;;11.70;;
58222;SDS011;44020;50.890;15.796;2024-02-14T14:07:38;23.10;;;10.30;;
58222;SDS011;44020;50.890;15.796;2024-02-14T14:10:08;43.80;;;20.90;;
58222;SDS011;44020;50.890;15.796;2024-02-14T14:12:39;43.00;;;26.50;;
58222;SDS011;44020;50.890;15.796;2024-02-14T14:15:06;13.10;;;8.20;;
58222;SDS011;44020;50.890;15.796;2024-02-14T14:17:36;17.40;;;7.90;;
58222;SDS011;44020;50.890;15.796;2024-02-14T14:20:03;20.80;;;11.10;;
58222;SDS011;44020;50.890;15.796;2024-02-14T14:22:32;12.40;;;6.30;;
58222;SDS011;44020;50.890;15.796;2024-02-14T14:24:59;8.70;;;5.00;;
58222;SDS011;44020;50.890;15.796;2024-02-14T14:27:27;4.70;;;2.70;;
58222;SDS011;44020;50.890;15.796;2024-02-14T14:29:54;7.40;;;4.40;;
58222;SDS011;44020;50.890;15.796;2024-02-14T14:32:21;7.70;;;4.60;;
58222;SDS011;44020;50.890;15.796;2024-02-14T14:34:49;7.00;;;3.50;;